Time;durP1;ratioP1;P1;durP2;ratioP2;P2;SDS_P1;SDS_P2;PMS_P1;PMS_P2;Temp;Humidity;BMP_temperature;BMP_pressure;BME280_temperature;BME280_humidity;BME280_pressure;Samples;Min_cycle;Max_cycle;Signal;HPM_P1;HPM_P2
2022/03/07 00:00:49;;;;;;;5.68;3.88;;;4.00;41.40;;;;;;5021343;28;20061;-42
2022/03/07 00:03:17;;;;;;;5.85;3.72;;;4.00;41.40;;;;;;5020968;28;20058;-42
2022/03/07 00:05:46;;;;;;;6.15;3.50;;;4.00;41.40;;;;;;5018850;28;20053;-42
2022/03/07 00:08:15;;;;;;;5.43;3.15;;;4.00;41.40;;;;;;5017576;28;20505;-42
2022/03/07 00:10:42;;;;;;;6.45;3.28;;;4.00;41.40;;;;;;5021075;28;20064;-42
2022/03/07 00:13:10;;;;;;;4.88;3.65;;;4.00;41.40;;;;;;5021905;28;20402;-42
2022/03/07 00:15:38;;;;;;;8.52;3.75;;;3.90;41.30;;;;;;5019006;28;20053;-43
2022/03/07 00:18:05;;;;;;;8.05;3.17;;;4.00;41.50;;;;;;5019835;28;20052;-42
2022/03/07 00:20:33;;;;;;;6.03;3.38;;;3.90;41.40;;;;;;5019386;28;20053;-42
2022/03/07 00:23:02;;;;;;;4.70;3.20;;;3.90;41.30;;;;;;5021647;28;20539;-41
2022/03/07 00:25:29;;;;;;;6.47;3.47;;;3.90;41.20;;;;;;5020620;28;20065;-42
2022/03/07 00:27:57;;;;;;;6.25;3.58;;;3.90;41.20;;;;;;5019437;28;20049;-41
2022/03/07 00:30:25;;;;;;;5.45;2.88;;;3.90;41.10;;;;;;5019470;28;20425;-42
2022/03/07 00:32:52;;;;;;;4.15;2.95;;;3.90;41.10;;;;;;5021401;28;20478;-41
2022/03/07 00:35:20;;;;;;;5.82;3.33;;;3.90;41.20;;;;;;5016545;28;20065;-42
2022/03/07 00:37:47;;;;;;;5.30;3.00;;;3.90;41.20;;;;;;5020115;28;20502;-42
2022/03/07 00:40:17;;;;;;;4.00;2.65;;;3.90;41.20;;;;;;5019347;28;20064;-45
2022/03/07 00:42:44;;;;;;;4.25;2.97;;;3.90;41.20;;;;;;5019907;28;20080;-42
2022/03/07 00:45:14;;;;;;;3.78;2.67;;;3.90;41.20;;;;;;5020164;28;20057;-43
2022/03/07 00:47:42;;;;;;;4.38;2.88;;;3.90;41.30;;;;;;5014719;28;20053;-42
2022/03/07 00:50:11;;;;;;;7.97;3.00;;;3.90;41.30;;;;;;5018270;28;20057;-43
2022/03/07 00:52:38;;;;;;;4.43;2.35;;;3.90;41.20;;;;;;5019815;28;20053;-42
2022/03/07 00:55:08;;;;;;;4.75;2.78;;;3.90;41.20;;;;;;5019295;28;20073;-42
2022/03/07 00:57:37;;;;;;;4.82;3.20;;;3.90;41.20;;;;;;5018746;28;20068;-42
2022/03/07 01:00:06;;;;;;;4.18;2.60;;;3.90;41.20;;;;;;5020515;28;20055;-42
2022/03/07 01:02:34;;;;;;;4.20;2.58;;;3.90;41.10;;;;;;5020193;28;20045;-42
2022/03/07 01:05:01;;;;;;;4.57;2.50;;;3.90;41.10;;;;;;5016904;28;20049;-45
2022/03/07 01:07:29;;;;;;;4.07;2.60;;;3.90;41.10;;;;;;5021064;28;20058;-42
2022/03/07 01:09:57;;;;;;;5.00;2.40;;;3.90;41.00;;;;;;5020060;28;20065;-42
2022/03/07 01:12:24;;;;;;;5.88;2.47;;;3.90;41.00;;;;;;5020405;28;20053;-41
2022/03/07 01:14:53;;;;;;;3.15;2.13;;;3.90;40.90;;;;;;5019708;28;20058;-42
2022/03/07 01:17:20;;;;;;;5.20;2.65;;;3.90;40.90;;;;;;5020346;28;20053;-41
2022/03/07 01:19:48;;;;;;;3.33;2.13;;;3.90;41.00;;;;;;5021643;28;20049;-42
2022/03/07 01:22:16;;;;;;;3.70;2.00;;;3.90;41.00;;;;;;5023921;28;20057;-42
2022/03/07 01:24:43;;;;;;;5.47;2.30;;;3.90;40.90;;;;;;5022982;28;20520;-41
2022/03/07 01:27:11;;;;;;;5.65;2.42;;;3.90;40.80;;;;;;5024378;28;20064;-42
2022/03/07 01:29:38;;;;;;;2.92;2.28;;;3.90;40.70;;;;;;5021797;28;20064;-42
2022/03/07 01:32:07;;;;;;;3.40;2.20;;;3.90;41.00;;;;;;5023791;28;20061;-42
2022/03/07 01:34:35;;;;;;;4.13;2.05;;;3.80;40.80;;;;;;5021352;28;20072;-42
2022/03/07 01:37:03;;;;;;;4.68;1.98;;;3.80;40.70;;;;;;5024107;28;20525;-42
2022/03/07 01:39:30;;;;;;;3.67;2.03;;;3.80;40.80;;;;;;5024507;28;20425;-42
2022/03/07 01:41:58;;;;;;;3.80;1.92;;;3.80;40.70;;;;;;5023776;28;20053;-44
2022/03/07 01:44:28;;;;;;;4.85;2.10;;;3.80;40.70;;;;;;5020951;28;20049;-42
2022/03/07 01:46:56;;;;;;;2.63;2.03;;;3.70;40.70;;;;;;5019213;28;20060;-42
2022/03/07 01:49:25;;;;;;;3.85;1.77;;;3.70;40.70;;;;;;5018481;28;20406;-42
2022/03/07 01:51:53;;;;;;;6.28;2.00;;;3.70;40.70;;;;;;5022966;28;20049;-43
2022/03/07 01:54:22;;;;;;;3.35;1.83;;;3.70;40.70;;;;;;5020936;28;20143;-42
2022/03/07 01:56:51;;;;;;;2.92;1.75;;;3.70;40.80;;;;;;5024634;28;20060;-44
2022/03/07 01:59:21;;;;;;;5.53;2.20;;;3.60;40.60;;;;;;5023096;28;20441;-42
2022/03/07 02:01:49;;;;;;;4.93;2.00;;;3.70;40.70;;;;;;5023299;28;20046;-42
2022/03/07 02:04:16;;;;;;;3.72;1.70;;;3.60;40.70;;;;;;5020746;28;20056;-43
2022/03/07 02:06:46;;;;;;;5.35;1.88;;;3.60;40.70;;;;;;5022803;28;20054;-46
2022/03/07 02:09:14;;;;;;;5.32;1.95;;;3.60;40.70;;;;;;5023156;28;20057;-42
2022/03/07 02:11:42;;;;;;;5.38;2.08;;;3.60;40.70;;;;;;5023353;28;20429;-45
2022/03/07 02:14:14;;;;;;;2.83;1.58;;;3.60;40.80;;;;;;5022444;28;20049;-42
2022/03/07 02:16:42;;;;;;;4.63;1.70;;;3.50;40.70;;;;;;5022758;28;20060;-42
2022/03/07 02:19:09;;;;;;;3.75;1.70;;;3.60;40.80;;;;;;5021886;28;20072;-42
2022/03/07 02:21:42;;;;;;;4.03;1.95;;;3.50;40.80;;;;;;5024111;28;20079;-42
2022/03/07 02:24:11;;;;;;;2.90;1.90;;;3.50;40.80;;;;;;5021214;28;20056;-42
2022/03/07 02:26:39;;;;;;;4.40;1.70;;;3.50;40.70;;;;;;5023610;28;20080;-42
2022/03/07 02:29:09;;;;;;;6.30;1.67;;;3.50;40.80;;;;;;5021095;28;20409;-43
2022/03/07 02:31:37;;;;;;;4.32;1.85;;;3.50;40.80;;;;;;5019624;28;20053;-42
2022/03/07 02:34:05;;;;;;;4.85;1.75;;;3.40;40.70;;;;;;5019507;28;20052;-42
2022/03/07 02:36:32;;;;;;;3.42;1.90;;;3.40;40.80;;;;;;5024150;28;20053;-42
2022/03/07 02:39:00;;;;;;;2.15;1.52;;;3.40;40.80;;;;;;5021535;28;20407;-42
2022/03/07 02:41:29;;;;;;;2.72;1.70;;;3.40;40.90;;;;;;5022862;28;20052;-42
2022/03/07 02:43:56;;;;;;;3.17;1.77;;;3.40;40.90;;;;;;5021193;28;20064;-42
2022/03/07 02:46:24;;;;;;;2.25;1.45;;;3.30;40.80;;;;;;5023571;28;20513;-42
2022/03/07 02:48:51;;;;;;;1.92;1.30;;;3.30;40.80;;;;;;5018376;28;20053;-42
2022/03/07 02:51:19;;;;;;;3.70;2.10;;;3.30;40.80;;;;;;5022817;28;20053;-42
2022/03/07 02:53:46;;;;;;;3.05;1.80;;;3.30;40.90;;;;;;5022103;28;20060;-42
2022/03/07 02:56:14;;;;;;;5.38;2.10;;;3.30;41.00;;;;;;5023164;28;20061;-42
2022/03/07 02:58:43;;;;;;;2.47;1.52;;;3.30;40.90;;;;;;5020708;28;20053;-42
2022/03/07 03:01:12;;;;;;;4.30;1.40;;;3.30;40.90;;;;;;5019859;28;20072;-42
2022/03/07 03:03:40;;;;;;;4.20;1.85;;;3.20;40.80;;;;;;5018102;28;20064;-43
2022/03/07 03:06:07;;;;;;;5.32;2.20;;;3.20;40.90;;;;;;5023039;28;20498;-44
2022/03/07 03:08:35;;;;;;;5.40;2.40;;;3.20;40.90;;;;;;5018131;28;20049;-43
2022/03/07 03:11:03;;;;;;;4.97;2.20;;;3.20;40.90;;;;;;5023614;28;20065;-42
2022/03/07 03:13:31;;;;;;;4.45;2.17;;;3.20;41.00;;;;;;5021719;28;20050;-42
2022/03/07 03:16:00;;;;;;;4.80;1.95;;;3.20;41.00;;;;;;5020873;28;20061;-43
2022/03/07 03:18:27;;;;;;;5.53;1.98;;;3.20;41.00;;;;;;5021105;28;20057;-42
2022/03/07 03:20:55;;;;;;;3.38;1.77;;;3.10;41.10;;;;;;5019831;28;20060;-43
2022/03/07 03:23:23;;;;;;;2.65;1.70;;;3.10;41.10;;;;;;5023092;28;20493;-43
2022/03/07 03:25:51;;;;;;;4.32;2.25;;;3.10;41.20;;;;;;5019414;28;20060;-42
2022/03/07 03:28:19;;;;;;;4.18;2.08;;;3.10;41.20;;;;;;5021589;28;20064;-44
2022/03/07 03:30:47;;;;;;;3.00;1.60;;;3.00;41.20;;;;;;5021620;28;20049;-44
2022/03/07 03:33:15;;;;;;;2.78;1.70;;;3.10;41.20;;;;;;5021203;28;20050;-42
2022/03/07 03:35:43;;;;;;;3.70;1.70;;;3.10;41.20;;;;;;5018057;28;20057;-43
2022/03/07 03:38:10;;;;;;;1.73;1.40;;;3.00;41.20;;;;;;5021386;28;20068;-42
2022/03/07 03:40:38;;;;;;;3.92;1.77;;;3.00;41.30;;;;;;5023240;28;20069;-42
2022/03/07 03:43:06;;;;;;;3.60;1.52;;;3.00;41.20;;;;;;5022098;28;20399;-42
2022/03/07 03:45:34;;;;;;;3.47;1.38;;;3.00;41.20;;;;;;5020259;28;20060;-42
2022/03/07 03:48:02;;;;;;;3.83;1.50;;;3.00;41.20;;;;;;5020910;28;21029;-42
2022/03/07 03:50:31;;;;;;;2.45;1.60;;;3.00;41.20;;;;;;5019713;28;20421;-42
2022/03/07 03:52:59;;;;;;;3.28;1.50;;;3.00;41.10;;;;;;5019968;28;21478;-42
2022/03/07 03:55:26;;;;;;;2.33;1.65;;;2.90;41.10;;;;;;5021563;28;20054;-42
2022/03/07 03:57:54;;;;;;;3.83;2.03;;;2.90;41.10;;;;;;5021293;28;20057;-42
2022/03/07 04:00:23;;;;;;;3.58;1.38;;;2.90;41.10;;;;;;5020482;28;20045;-42
2022/03/07 04:02:51;;;;;;;4.40;1.73;;;2.90;41.10;;;;;;5020990;28;20068;-42
2022/03/07 04:05:19;;;;;;;3.53;1.50;;;2.90;41.10;;;;;;5020273;28;20068;-42
2022/03/07 04:07:48;;;;;;;2.42;1.33;;;2.90;41.10;;;;;;5021154;28;20057;-43
2022/03/07 04:10:15;;;;;;;2.65;1.50;;;2.90;41.10;;;;;;5018649;28;20068;-42
2022/03/07 04:12:43;;;;;;;3.50;2.00;;;2.80;41.00;;;;;;5020386;28;20072;-42
2022/03/07 04:15:12;;;;;;;4.10;1.52;;;2.80;41.00;;;;;;5021072;28;20064;-42
2022/03/07 04:17:40;;;;;;;2.53;1.75;;;2.80;41.10;;;;;;5021513;28;20397;-42
2022/03/07 04:20:09;;;;;;;3.30;1.55;;;2.80;41.10;;;;;;5020840;28;20072;-42
2022/03/07 04:22:37;;;;;;;3.08;1.75;;;2.80;41.10;;;;;;5022541;28;20060;-42
2022/03/07 04:25:07;;;;;;;3.20;1.67;;;2.80;41.10;;;;;;5019078;28;20057;-45
2022/03/07 04:27:35;;;;;;;7.22;1.73;;;2.70;41.00;;;;;;5016798;28;20045;-45
2022/03/07 04:30:04;;;;;;;5.88;1.85;;;2.70;41.00;;;;;;5019834;28;20065;-43
2022/03/07 04:32:36;;;;;;;4.82;2.00;;;2.70;41.00;;;;;;5021217;28;20223;-42
2022/03/07 04:35:05;;;;;;;3.15;1.85;;;2.70;41.10;;;;;;5015560;28;20045;-42
2022/03/07 04:37:34;;;;;;;5.18;2.22;;;2.70;41.10;;;;;;5019466;28;20065;-42
2022/03/07 04:40:02;;;;;;;2.78;1.90;;;2.70;41.10;;;;;;5019961;28;20049;-42
2022/03/07 04:42:31;;;;;;;3.42;2.08;;;2.60;41.00;;;;;;5021128;28;20061;-42
2022/03/07 04:44:58;;;;;;;3.42;1.98;;;2.60;41.10;;;;;;5017418;28;20532;-42
2022/03/07 04:47:26;;;;;;;3.10;1.90;;;2.50;41.20;;;;;;5021219;28;20068;-42
2022/03/07 04:49:53;;;;;;;5.57;2.58;;;2.50;41.30;;;;;;5020957;28;20445;-42
2022/03/07 04:52:21;;;;;;;5.75;2.10;;;2.40;41.40;;;;;;5021086;28;20064;-42
2022/03/07 04:54:48;;;;;;;8.18;2.10;;;2.40;41.60;;;;;;5026009;28;20053;-42
2022/03/07 04:57:16;;;;;;;4.65;2.33;;;2.40;41.70;;;;;;5024749;28;20053;-44
2022/03/07 04:59:45;;;;;;;10.13;2.25;;;2.30;41.80;;;;;;5025755;28;20054;-42
2022/03/07 05:02:13;;;;;;;5.20;2.25;;;2.30;41.90;;;;;;5026543;28;20061;-42
2022/03/07 05:04:40;;;;;;;4.93;2.40;;;2.30;42.10;;;;;;5024858;28;20041;-42
2022/03/07 05:07:08;;;;;;;3.40;1.98;;;2.30;42.20;;;;;;5026201;28;20064;-42
2022/03/07 05:09:35;;;;;;;5.40;2.50;;;2.30;42.30;;;;;;5025803;28;20060;-42
2022/03/07 05:12:04;;;;;;;3.85;1.92;;;2.20;42.30;;;;;;5026378;28;20396;-42
2022/03/07 05:14:31;;;;;;;4.57;2.15;;;2.20;42.40;;;;;;5023068;28;20410;-42
2022/03/07 05:17:00;;;;;;;3.05;1.70;;;2.30;42.50;;;;;;5022021;28;20041;-42
2022/03/07 05:19:27;;;;;;;4.30;1.90;;;2.30;42.50;;;;;;5022222;28;20120;-42
2022/03/07 05:21:55;;;;;;;2.10;1.67;;;2.30;42.40;;;;;;5025303;28;20061;-42
2022/03/07 05:24:22;;;;;;;2.92;1.67;;;2.30;42.40;;;;;;5021618;28;20045;-42
2022/03/07 05:26:50;;;;;;;3.55;2.17;;;2.30;42.40;;;;;;5025317;28;20057;-42
2022/03/07 05:29:18;;;;;;;2.10;1.58;;;2.40;42.50;;;;;;5024872;28;20061;-42
2022/03/07 05:31:45;;;;;;;3.08;1.52;;;2.40;42.50;;;;;;5025172;28;20049;-44
2022/03/07 05:34:14;;;;;;;3.42;1.50;;;2.40;42.40;;;;;;5020002;28;20050;-42
2022/03/07 05:36:42;;;;;;;3.55;1.77;;;2.50;42.40;;;;;;5022342;28;20064;-42
2022/03/07 05:39:10;;;;;;;7.05;1.70;;;2.50;42.30;;;;;;5025679;28;20080;-42
2022/03/07 05:41:38;;;;;;;4.05;1.70;;;2.60;42.40;;;;;;5025730;28;20068;-42
2022/03/07 05:44:06;;;;;;;3.97;1.90;;;2.60;42.40;;;;;;5024534;28;20518;-42
2022/03/07 05:46:33;;;;;;;3.13;1.75;;;2.70;42.60;;;;;;5022588;28;20054;-42
2022/03/07 05:49:02;;;;;;;4.15;2.00;;;2.70;42.60;;;;;;5023101;28;20501;-43
2022/03/07 05:51:31;;;;;;;4.93;2.33;;;2.70;42.70;;;;;;5024933;28;20053;-42
2022/03/07 05:53:58;;;;;;;4.95;2.75;;;2.70;42.60;;;;;;5022971;28;20508;-42
2022/03/07 05:56:26;;;;;;;7.72;3.45;;;2.70;42.40;;;;;;5020055;28;20054;-43
2022/03/07 05:58:53;;;;;;;6.65;2.58;;;2.70;42.40;;;;;;5019114;28;20057;-42
2022/03/07 06:01:21;;;;;;;5.40;2.15;;;2.80;42.30;;;;;;5017848;28;20049;-42
2022/03/07 06:03:48;;;;;;;4.95;2.10;;;2.80;42.30;;;;;;5017799;28;20057;-42
2022/03/07 06:06:16;;;;;;;3.25;1.83;;;2.80;42.30;;;;;;5020122;28;20057;-42
2022/03/07 06:08:45;;;;;;;5.38;2.53;;;2.80;42.30;;;;;;5022784;28;20053;-42
2022/03/07 06:11:12;;;;;;;1.95;1.65;;;2.80;42.30;;;;;;5020408;28;20421;-43
2022/03/07 06:13:40;;;;;;;10.05;4.07;;;2.80;42.20;;;;;;5018284;28;20045;-42
2022/03/07 06:16:07;;;;;;;10.05;4.43;;;2.80;42.20;;;;;;5018125;28;20062;-42
2022/03/07 06:18:35;;;;;;;9.52;3.75;;;2.90;42.20;;;;;;5022849;28;20871;-42
2022/03/07 06:21:03;;;;;;;7.15;3.00;;;2.80;42.10;;;;;;5021866;28;20053;-41
2022/03/07 06:23:30;;;;;;;5.30;2.50;;;2.80;42.10;;;;;;5022912;28;20058;-45
2022/03/07 06:25:59;;;;;;;2.97;2.10;;;2.90;42.10;;;;;;5020898;28;20053;-42
2022/03/07 06:28:27;;;;;;;3.35;2.35;;;2.80;42.10;;;;;;5022656;28;20057;-43
2022/03/07 06:30:54;;;;;;;3.10;2.15;;;2.90;42.20;;;;;;5019873;28;20061;-42
2022/03/07 06:33:22;;;;;;;3.80;2.20;;;2.80;42.20;;;;;;5021308;28;20076;-44
2022/03/07 06:35:49;;;;;;;4.80;2.20;;;2.80;42.70;;;;;;5019965;28;20057;-42
2022/03/07 06:38:17;;;;;;;4.47;2.28;;;2.80;42.30;;;;;;5022239;28;20056;-44
2022/03/07 06:40:45;;;;;;;4.53;2.50;;;2.90;42.30;;;;;;5019682;28;20432;-42
2022/03/07 06:43:14;;;;;;;4.90;2.50;;;2.90;42.30;;;;;;5021005;28;20429;-42
2022/03/07 06:45:42;;;;;;;3.50;2.10;;;2.90;42.20;;;;;;5019357;28;20056;-43
2022/03/07 06:48:09;;;;;;;3.60;2.38;;;2.90;42.70;;;;;;5021483;28;20095;-43
2022/03/07 06:50:37;;;;;;;2.40;1.73;;;2.90;42.20;;;;;;5020294;28;20509;-43
2022/03/07 06:53:04;;;;;;;3.55;2.20;;;2.90;42.20;;;;;;5021015;28;20080;-42
2022/03/07 06:55:32;;;;;;;4.30;2.28;;;2.90;42.20;;;;;;5018260;28;20607;-45
2022/03/07 06:58:00;;;;;;;8.07;2.50;;;2.90;42.20;;;;;;5021239;28;20065;-44
2022/03/07 07:00:29;;;;;;;3.60;2.35;;;2.90;42.20;;;;;;5018324;28;20057;-42
2022/03/07 07:02:56;;;;;;;3.58;2.10;;;2.90;42.30;;;;;;5017960;28;20065;-43
2022/03/07 07:05:24;;;;;;;4.22;2.65;;;3.00;42.40;;;;;;5016766;28;20041;-47
2022/03/07 07:07:52;;;;;;;4.57;2.70;;;3.00;42.40;;;;;;5017746;28;20064;-42
2022/03/07 07:10:19;;;;;;;5.15;2.97;;;3.00;42.40;;;;;;5017184;28;20730;-42
2022/03/07 07:12:48;;;;;;;8.77;3.08;;;3.00;42.40;;;;;;5017935;28;20068;-42
2022/03/07 07:15:18;;;;;;;5.40;2.70;;;3.00;42.40;;;;;;5018596;28;20053;-42
2022/03/07 07:17:47;;;;;;;6.22;2.95;;;3.00;42.40;;;;;;5023654;28;20086;-46
2022/03/07 07:20:15;;;;;;;14.27;3.00;;;3.00;42.40;;;;;;5019038;28;20061;-42
2022/03/07 07:22:43;;;;;;;6.78;3.33;;;3.00;42.40;;;;;;5020922;28;20057;-43
2022/03/07 07:25:11;;;;;;;4.32;3.40;;;2.90;42.40;;;;;;5018096;28;20068;-42
2022/03/07 07:27:39;;;;;;;9.65;3.45;;;2.90;42.40;;;;;;5021313;28;20049;-42
2022/03/07 07:30:09;;;;;;;7.05;3.58;;;2.80;42.50;;;;;;5019231;28;20057;-42
2022/03/07 07:32:38;;;;;;;6.50;3.80;;;2.80;42.60;;;;;;5021587;28;20061;-42
2022/03/07 07:35:08;;;;;;;6.88;3.55;;;2.80;42.70;;;;;;5016565;28;20706;-42
2022/03/07 07:37:36;;;;;;;4.95;2.88;;;2.80;42.90;;;;;;5014739;28;20049;-43
2022/03/07 07:40:05;;;;;;;8.18;3.65;;;2.80;42.90;;;;;;5014182;28;21264;-42
2022/03/07 07:42:33;;;;;;;7.22;3.78;;;2.80;43.00;;;;;;5015292;28;20053;-42
2022/03/07 07:45:00;;;;;;;6.45;3.13;;;2.80;43.10;;;;;;5015292;28;20057;-42
2022/03/07 07:47:28;;;;;;;7.75;3.60;;;2.90;43.20;;;;;;5016110;28;20053;-42
2022/03/07 07:49:55;;;;;;;10.48;4.50;;;2.90;43.30;;;;;;5017865;28;20053;-42
2022/03/07 07:52:24;;;;;;;10.60;4.00;;;3.00;43.60;;;;;;5015898;28;20064;-45
2022/03/07 07:54:52;;;;;;;6.85;3.47;;;3.00;43.60;;;;;;5016672;28;20060;-42
2022/03/07 07:57:19;;;;;;;7.40;3.58;;;3.00;43.60;;;;;;5019203;28;20522;-44
2022/03/07 07:59:47;;;;;;;8.00;3.08;;;3.10;43.70;;;;;;5018998;28;20053;-42
2022/03/07 08:02:15;;;;;;;5.82;3.45;;;3.10;43.70;;;;;;5023109;28;20068;-42
2022/03/07 08:04:43;;;;;;;8.55;3.60;;;3.20;43.80;;;;;;5018577;28;20053;-42
2022/03/07 08:07:11;;;;;;;7.63;3.63;;;3.20;43.70;;;;;;5022443;28;20057;-41
2022/03/07 08:09:42;;;;;;;8.00;3.72;;;3.30;43.70;;;;;;5023029;28;20060;-42
2022/03/07 08:12:10;;;;;;;5.43;3.05;;;3.40;43.60;;;;;;5023460;28;20072;-41
2022/03/07 08:14:40;;;;;;;4.93;3.22;;;3.40;43.50;;;;;;5021010;28;20065;-42
2022/03/07 08:17:09;;;;;;;6.63;3.20;;;3.50;43.50;;;;;;5022268;28;20540;-41
2022/03/07 08:19:37;;;;;;;8.73;3.47;;;3.50;43.50;;;;;;5021169;28;20057;-42
2022/03/07 08:22:05;;;;;;;6.07;2.95;;;3.60;43.40;;;;;;5022763;28;20493;-46
2022/03/07 08:24:32;;;;;;;5.60;3.38;;;3.60;43.30;;;;;;5020446;28;20057;-42
2022/03/07 08:27:01;;;;;;;4.80;2.85;;;3.70;43.30;;;;;;5021579;28;20508;-41
2022/03/07 08:29:29;;;;;;;5.15;3.03;;;3.80;43.20;;;;;;5026177;28;20060;-42
2022/03/07 08:31:58;;;;;;;5.60;3.00;;;3.80;43.10;;;;;;5023337;28;20072;-42
2022/03/07 08:34:26;;;;;;;5.22;3.17;;;3.90;42.90;;;;;;5023352;28;20417;-44
2022/03/07 08:36:56;;;;;;;8.38;3.40;;;3.90;42.80;;;;;;5025244;28;20053;-42
2022/03/07 08:39:24;;;;;;;5.78;3.10;;;4.00;42.70;;;;;;5026039;28;20057;-42
2022/03/07 08:41:51;;;;;;;4.63;2.97;;;4.10;42.60;;;;;;5026536;28;20049;-42
2022/03/07 08:44:20;;;;;;;7.32;3.67;;;4.10;42.50;;;;;;5025339;28;20053;-42
2022/03/07 08:46:48;;;;;;;9.38;3.55;;;4.20;42.50;;;;;;5024255;28;20079;-41
2022/03/07 08:49:15;;;;;;;6.55;3.17;;;4.20;42.50;;;;;;5024498;28;20420;-44
2022/03/07 08:51:44;;;;;;;10.25;3.38;;;4.30;42.50;;;;;;5026414;28;20521;-43
2022/03/07 08:54:12;;;;;;;9.98;4.53;;;4.40;42.50;;;;;;5025367;28;20072;-42
2022/03/07 08:56:39;;;;;;;6.18;3.58;;;4.40;42.70;;;;;;5025738;28;20053;-43
2022/03/07 08:59:07;;;;;;;8.90;4.07;;;4.50;42.70;;;;;;5024138;28;20056;-46
2022/03/07 09:01:36;;;;;;;8.98;3.83;;;4.50;42.50;;;;;;5025781;28;20064;-42
2022/03/07 09:04:04;;;;;;;4.78;3.20;;;4.60;42.70;;;;;;5024248;28;20053;-42
2022/03/07 09:06:32;;;;;;;7.68;3.70;;;4.60;42.50;;;;;;5024666;28;20068;-42
2022/03/07 09:08:59;;;;;;;6.22;3.15;;;4.70;42.50;;;;;;5026492;28;20064;-42
2022/03/07 09:11:27;;;;;;;6.10;3.47;;;4.80;42.20;;;;;;5025618;28;20053;-41
2022/03/07 09:13:54;;;;;;;7.03;3.47;;;4.90;42.10;;;;;;5022059;28;20068;-42
2022/03/07 09:16:22;;;;;;;6.80;3.15;;;4.90;42.40;;;;;;5024210;28;20080;-42
2022/03/07 09:18:51;;;;;;;5.75;3.63;;;5.00;42.40;;;;;;5022271;28;20054;-42
2022/03/07 09:21:18;;;;;;;6.90;3.63;;;5.00;42.40;;;;;;5025965;28;20494;-42
2022/03/07 09:23:46;;;;;;;4.35;2.95;;;5.10;42.20;;;;;;5024564;28;21578;-42
2022/03/07 09:26:14;;;;;;;7.93;3.22;;;5.20;42.10;;;;;;5021509;28;20049;-43
2022/03/07 09:28:43;;;;;;;5.50;3.30;;;5.30;42.00;;;;;;5024669;28;20057;-42
2022/03/07 09:31:10;;;;;;;5.70;3.17;;;5.30;41.90;;;;;;5024345;28;20061;-42
2022/03/07 09:33:39;;;;;;;6.25;3.47;;;5.40;41.90;;;;;;5023104;28;20543;-42
2022/03/07 09:36:08;;;;;;;13.02;3.40;;;5.40;41.70;;;;;;5024183;28;20409;-42
2022/03/07 09:38:36;;;;;;;5.50;3.22;;;5.50;41.50;;;;;;5024860;28;20064;-42
2022/03/07 09:41:05;;;;;;;8.18;2.90;;;5.60;41.40;;;;;;5025485;28;20054;-42
2022/03/07 09:43:33;;;;;;;7.85;3.40;;;5.70;41.20;;;;;;5022571;28;20049;-43
2022/03/07 09:46:01;;;;;;;6.55;3.58;;;5.70;41.30;;;;;;5023463;28;20045;-42
2022/03/07 09:48:28;;;;;;;5.65;3.00;;;5.80;41.40;;;;;;5023954;28;20470;-44
2022/03/07 09:50:56;;;;;;;6.05;3.13;;;5.80;41.10;;;;;;5025202;28;20063;-42
2022/03/07 09:53:25;;;;;;;7.18;3.80;;;5.80;41.00;;;;;;5023335;28;21312;-42
2022/03/07 09:55:53;;;;;;;5.03;3.10;;;5.90;40.80;;;;;;5023052;28;20049;-42
2022/03/07 09:58:20;;;;;;;11.25;3.58;;;5.90;40.60;;;;;;5023285;28;20506;-42
2022/03/07 10:00:48;;;;;;;5.82;2.85;;;6.00;40.60;;;;;;5024112;28;20053;-43
2022/03/07 10:03:18;;;;;;;6.72;2.83;;;6.00;40.70;;;;;;5024123;28;20141;-42
2022/03/07 10:05:46;;;;;;;6.03;3.08;;;6.10;40.60;;;;;;5020172;28;20503;-42
2022/03/07 10:08:24;;;;;;;4.30;2.50;;;6.10;40.80;;;;;;5024564;28;20497;-43
2022/03/07 10:10:53;;;;;;;4.45;3.03;;;6.20;40.90;;;;;;5025359;28;20061;-42
2022/03/07 10:13:22;;;;;;;4.88;2.95;;;6.30;40.90;;;;;;5024053;28;20056;-43
2022/03/07 10:15:58;;;;;;;8.95;4.00;;;6.30;40.90;;;;;;5022781;28;20053;-42
2022/03/07 10:18:27;;;;;;;6.07;3.10;;;6.30;40.70;;;;;;5023919;28;20057;-44
2022/03/07 10:20:59;;;;;;;5.15;2.92;;;6.40;40.90;;;;;;5024306;28;20485;-42
2022/03/07 10:23:27;;;;;;;5.38;2.63;;;6.40;40.90;;;;;;5024021;28;20505;-48
2022/03/07 10:26:07;;;;;;;6.63;2.55;;;6.50;40.70;;;;;;5021707;28;20049;-42
2022/03/07 10:28:36;;;;;;;3.67;2.70;;;6.50;40.40;;;;;;5024617;28;20050;-42
2022/03/07 10:31:13;;;;;;;5.72;2.83;;;6.60;40.50;;;;;;5024449;28;20076;-45
2022/03/07 10:33:41;;;;;;;4.88;3.05;;;6.60;40.20;;;;;;5022441;28;20057;-42
2022/03/07 10:36:09;;;;;;;4.43;2.85;;;6.60;40.00;;;;;;5020629;28;21280;-42
2022/03/07 10:38:36;;;;;;;45.22;17.60;;;6.70;39.80;;;;;;5023269;28;20064;-42
2022/03/07 10:41:04;;;;;;;12.23;5.75;;;6.70;39.60;;;;;;5022328;28;20062;-46
2022/03/07 10:43:33;;;;;;;6.60;4.07;;;6.70;39.80;;;;;;5022963;28;20053;-43
2022/03/07 10:46:02;;;;;;;7.05;3.55;;;6.70;39.80;;;;;;5020314;28;20064;-43
2022/03/07 10:48:41;;;;;;;10.50;4.40;;;6.80;39.40;;;;;;5021544;28;20057;-42
2022/03/07 10:51:16;;;;;;;4.20;2.80;;;6.80;39.60;;;;;;5023846;28;20406;-42
2022/03/07 10:53:43;;;;;;;4.45;2.75;;;6.80;39.60;;;;;;5021280;28;20057;-43
2022/03/07 10:56:13;;;;;;;5.15;3.15;;;6.90;39.50;;;;;;5024180;28;20049;-43
2022/03/07 10:58:48;;;;;;;6.60;3.10;;;6.90;39.40;;;;;;5022654;28;20402;-42
2022/03/07 11:01:28;;;;;;;5.03;3.20;;;6.90;39.50;;;;;;5024106;28;20057;-42
2022/03/07 11:03:56;;;;;;;5.97;3.10;;;7.00;39.70;;;;;;5013122;28;20057;-42
2022/03/07 11:06:25;;;;;;;6.60;2.85;;;7.00;40.00;;;;;;5020546;28;20049;-43
2022/03/07 11:08:52;;;;;;;5.93;2.70;;;7.00;40.10;;;;;;5019286;28;20064;-42
2022/03/07 11:11:21;;;;;;;5.55;2.60;;;7.10;40.00;;;;;;5021871;28;20057;-45
2022/03/07 11:13:55;;;;;;;5.18;3.15;;;7.10;40.10;;;;;;5019326;28;20928;-42
2022/03/07 11:16:23;;;;;;;4.40;2.22;;;7.10;39.70;;;;;;5019502;28;20883;-42
2022/03/07 11:18:54;;;;;;;4.60;2.90;;;7.20;40.00;;;;;;5020411;28;20049;-42
2022/03/07 11:21:23;;;;;;;8.20;3.83;;;7.20;39.70;;;;;;5018742;28;20049;-42
2022/03/07 11:23:51;;;;;;;4.18;2.55;;;7.20;39.60;;;;;;5022272;28;20057;-42
2022/03/07 11:26:20;;;;;;;3.88;2.92;;;7.30;39.70;;;;;;5022741;28;20049;-42
2022/03/07 11:28:51;;;;;;;3.83;2.60;;;7.30;39.60;;;;;;5021972;28;20064;-42
2022/03/07 11:31:26;;;;;;;6.22;3.13;;;7.40;39.30;;;;;;5018632;28;20064;-42
2022/03/07 11:33:55;;;;;;;12.32;2.63;;;7.40;39.10;;;;;;5020852;28;20056;-42
2022/03/07 11:36:24;;;;;;;4.60;2.95;;;7.40;39.20;;;;;;5022111;28;20489;-42
2022/03/07 11:38:54;;;;;;;5.63;3.13;;;7.40;39.20;;;;;;5021700;28;20061;-43
2022/03/07 11:41:28;;;;;;;5.88;2.90;;;7.50;39.10;;;;;;5023102;28;20057;-42
2022/03/07 11:44:00;;;;;;;5.60;3.25;;;7.50;39.40;;;;;;5018887;28;20456;-43
2022/03/07 11:46:32;;;;;;;4.30;2.80;;;7.50;39.50;;;;;;5019626;28;20053;-42
2022/03/07 11:49:00;;;;;;;7.13;3.00;;;7.50;38.90;;;;;;5018793;28;20899;-42
2022/03/07 11:51:30;;;;;;;9.23;3.55;;;7.60;38.70;;;;;;5021863;28;20072;-42
2022/03/07 11:53:58;;;;;;;5.20;3.00;;;7.60;38.80;;;;;;5019261;28;20053;-42
2022/03/07 11:56:29;;;;;;;6.63;2.88;;;7.60;39.20;;;;;;5022528;28;20049;-43
2022/03/07 11:58:59;;;;;;;5.07;3.15;;;7.60;39.20;;;;;;5022910;28;20053;-42
2022/03/07 12:01:28;;;;;;;8.40;3.17;;;7.60;38.90;;;;;;5021220;28;20053;-42
2022/03/07 12:04:09;;;;;;;5.45;3.30;;;7.70;38.80;;;;;;5021070;28;20068;-42
2022/03/07 12:06:44;;;;;;;6.13;3.10;;;7.70;39.00;;;;;;5022422;28;20049;-42
2022/03/07 12:09:11;;;;;;;;;;;7.70;38.60;;;;;;5020709;28;20049;-42
2022/03/07 12:11:40;;;;;;;4.22;2.67;;;7.80;38.60;;;;;;5022929;28;20300;-42
2022/03/07 12:14:09;;;;;;;5.93;3.20;;;7.90;38.70;;;;;;5020287;28;20057;-42
2022/03/07 12:16:38;;;;;;;4.75;2.63;;;7.90;38.60;;;;;;5022484;28;20053;-42
2022/03/07 12:19:10;;;;;;;6.72;3.65;;;7.90;38.30;;;;;;5020239;28;20057;-42
2022/03/07 12:21:43;;;;;;;4.63;3.08;;;7.90;38.50;;;;;;5021692;28;20056;-42
2022/03/07 12:24:12;;;;;;;8.80;3.60;;;7.90;38.40;;;;;;5021994;28;20049;-42
2022/03/07 12:26:47;;;;;;;6.90;3.28;;;7.90;38.40;;;;;;5022566;28;20401;-43
2022/03/07 12:29:16;;;;;;;6.25;3.53;;;7.90;38.60;;;;;;5020494;28;20057;-42
2022/03/07 12:31:51;;;;;;;6.80;3.80;;;8.00;38.80;;;;;;5022299;28;20386;-44
2022/03/07 12:34:22;;;;;;;5.50;3.15;;;8.00;38.60;;;;;;5020379;28;20060;-42
2022/03/07 12:37:10;;;;;;;4.30;2.88;;;8.00;38.50;;;;;;5022356;28;20053;-44
2022/03/07 12:39:45;;;;;;;5.68;3.40;;;8.00;38.70;;;;;;5022587;28;20057;-42
2022/03/07 12:42:14;;;;;;;5.40;3.08;;;8.10;38.50;;;;;;5021876;28;20057;-42
2022/03/07 12:44:43;;;;;;;11.52;3.78;;;8.10;38.40;;;;;;5021234;28;20053;-43
2022/03/07 12:47:11;;;;;;;4.40;3.00;;;8.10;38.20;;;;;;5021441;28;20072;-42
2022/03/07 12:49:43;;;;;;;4.80;2.88;;;8.10;38.30;;;;;;5019435;28;20049;-42
2022/03/07 12:52:21;;;;;;;4.90;3.45;;;8.10;38.30;;;;;;5021572;28;20049;-43
2022/03/07 12:54:48;;;;;;;4.82;3.05;;;8.20;38.20;;;;;;5021792;28;20117;-43
2022/03/07 12:57:17;;;;;;;5.32;3.60;;;8.10;38.00;;;;;;5021852;28;20057;-42
2022/03/07 12:59:48;;;;;;;5.55;2.95;;;8.20;38.10;;;;;;5022394;28;20061;-42
2022/03/07 13:02:16;;;;;;;5.82;3.13;;;8.20;38.00;;;;;;5021589;28;20116;-42
2022/03/07 13:04:45;;;;;;;6.97;3.40;;;8.20;38.20;;;;;;5019026;28;20080;-42